createdAt,value
2023-03-03T00:01:44.149Z,25.52
2023-03-03T00:04:13.168Z,21.98
2023-03-03T00:06:42.234Z,22.98
2023-03-03T00:09:11.347Z,22.08
2023-03-03T00:11:40.437Z,28.83
2023-03-03T00:14:23.543Z,23.70
2023-03-03T00:16:52.647Z,21.17
2023-03-03T00:19:23.387Z,19.23
2023-03-03T00:21:54.293Z,21.20
2023-03-03T00:24:25.785Z,23.85
2023-03-03T00:26:56.742Z,21.63
2023-03-03T00:29:31.265Z,31.88
2023-03-03T00:32:26.715Z,22.90
2023-03-03T00:34:57.750Z,24.65
2023-03-03T00:37:32.653Z,21.98
2023-03-03T00:40:25.202Z,21.27
2023-03-03T00:42:56.436Z,25.55
2023-03-03T00:45:33.039Z,22.02
2023-03-03T00:48:11.400Z,23.15
2023-03-03T00:50:44.788Z,20.67
2023-03-03T00:53:17.343Z,21.45
2023-03-03T00:55:47.837Z,27.88
2023-03-03T00:58:18.753Z,22.23
2023-03-03T01:00:51.465Z,21.75
2023-03-03T01:03:25.691Z,26.45
2023-03-03T01:05:55.725Z,27.52
2023-03-03T01:08:25.374Z,23.58
2023-03-03T01:10:56.140Z,26.75
2023-03-03T01:13:27.442Z,19.83
2023-03-03T01:15:58.293Z,19.45
2023-03-03T01:18:27.975Z,25.45
2023-03-03T01:20:57.305Z,23.77
2023-03-03T01:23:26.373Z,21.80
2023-03-03T01:25:55.629Z,26.70
2023-03-03T01:28:24.717Z,31.42
2023-03-03T01:30:54.609Z,24.00
2023-03-03T01:33:25.242Z,25.70
2023-03-03T01:35:54.748Z,25.23
2023-03-03T01:38:23.902Z,30.40
2023-03-03T01:40:55.826Z,26.88
2023-03-03T01:43:27.653Z,26.77
2023-03-03T01:46:36.364Z,27.17
2023-03-03T01:49:14.114Z,23.30
2023-03-03T01:51:50.013Z,23.00
2023-03-03T01:54:23.044Z,30.70
2023-03-03T01:56:54.244Z,21.77
2023-03-03T01:59:29.077Z,26.65
2023-03-03T02:01:58.219Z,22.38
2023-03-03T02:04:29.474Z,25.20
2023-03-03T02:07:04.500Z,29.40
2023-03-03T02:09:42.730Z,25.58
2023-03-03T02:12:15.129Z,24.85
2023-03-03T02:14:44.220Z,22.20
2023-03-03T02:17:13.549Z,20.73
2023-03-03T02:19:52.320Z,31.10
2023-03-03T02:22:28.378Z,23.38
2023-03-03T02:25:01.875Z,27.10
2023-03-03T02:27:34.587Z,25.38
2023-03-03T02:30:13.188Z,27.08
2023-03-03T02:32:42.675Z,23.98
2023-03-03T02:35:33.242Z,19.98
2023-03-03T02:38:11.057Z,24.85
2023-03-03T02:40:44.447Z,21.30
2023-03-03T02:43:18.678Z,27.85
2023-03-03T02:45:48.177Z,22.73
2023-03-03T02:48:17.388Z,22.40
2023-03-03T02:50:46.872Z,23.95
2023-03-03T02:53:15.951Z,26.48
2023-03-03T02:55:45.067Z,19.42
2023-03-03T02:58:15.633Z,31.55
2023-03-03T03:00:47.739Z,23.83
2023-03-03T03:03:20.867Z,28.20
2023-03-03T03:05:50.592Z,31.98
2023-03-03T03:08:22.575Z,26.20
2023-03-03T03:10:51.599Z,34.67
2023-03-03T03:13:22.152Z,27.88
2023-03-03T03:15:51.145Z,28.80
2023-03-03T03:18:20.232Z,27.02
2023-03-03T03:21:10.279Z,25.17
2023-03-03T03:23:40.404Z,25.60
2023-03-03T03:26:10.095Z,24.38
2023-03-03T03:28:40.965Z,24.40
2023-03-03T03:31:10.934Z,32.15
2023-03-03T03:33:40.041Z,27.20
2023-03-03T03:36:10.097Z,23.15
2023-03-03T03:38:39.790Z,24.88
2023-03-03T03:41:10.598Z,22.83
2023-03-03T03:43:42.052Z,24.55
2023-03-03T03:46:11.140Z,26.38
2023-03-03T03:48:40.277Z,28.83
2023-03-03T03:51:12.754Z,25.50
2023-03-03T03:53:42.780Z,32.80
2023-03-03T03:56:12.102Z,26.55
2023-03-03T03:58:44.485Z,30.80
2023-03-03T04:01:15.750Z,25.30
2023-03-03T04:03:49.529Z,25.55
2023-03-03T04:06:22.091Z,24.80
2023-03-03T04:08:51.414Z,25.38
2023-03-03T04:11:23.441Z,25.85
2023-03-03T04:13:53.922Z,16.20
2023-03-03T04:16:23.810Z,28.88
2023-03-03T04:18:53.059Z,29.08
2023-03-03T04:21:23.244Z,27.35
2023-03-03T04:23:54.474Z,29.02
2023-03-03T04:26:23.989Z,32.17
2023-03-03T04:28:54.997Z,27.38
2023-03-03T04:31:25.854Z,25.77
2023-03-03T04:33:54.952Z,21.95
2023-03-03T04:36:25.216Z,24.52
2023-03-03T04:38:54.374Z,23.40
2023-03-03T04:41:23.599Z,28.23
2023-03-03T04:43:54.022Z,18.20
2023-03-03T04:46:23.219Z,23.58
2023-03-03T04:48:53.029Z,24.70
2023-03-03T04:51:22.652Z,19.92
2023-03-03T04:53:51.742Z,33.42
2023-03-03T04:56:21.115Z,23.33
2023-03-03T04:58:51.451Z,26.08
2023-03-03T05:01:21.924Z,22.52
2023-03-03T05:03:51.198Z,21.83
2023-03-03T05:06:20.292Z,23.67
2023-03-03T05:08:49.309Z,21.85
2023-03-03T05:11:18.370Z,23.88
2023-03-03T05:13:47.340Z,34.20
2023-03-03T05:16:16.480Z,27.15
2023-03-03T05:18:47.950Z,25.65
2023-03-03T05:21:17.056Z,37.95
2023-03-03T05:23:46.028Z,21.48
2023-03-03T05:26:15.085Z,28.48
2023-03-03T05:28:44.056Z,31.45
2023-03-03T05:31:13.235Z,33.92
2023-03-03T05:33:42.164Z,27.77
2023-03-03T05:36:12.594Z,24.48
2023-03-03T05:38:41.561Z,23.80
2023-03-03T05:41:10.716Z,21.27
2023-03-03T05:43:39.778Z,20.80
2023-03-03T05:46:08.987Z,21.27
2023-03-03T05:48:37.976Z,28.55
2023-03-03T05:51:07.364Z,22.10
2023-03-03T05:53:38.141Z,28.70
2023-03-03T05:56:07.759Z,28.80
2023-03-03T05:58:36.921Z,25.80
2023-03-03T06:01:06.067Z,22.13
2023-03-03T06:03:35.122Z,15.05
2023-03-03T06:06:04.346Z,21.30
2023-03-03T06:08:33.648Z,16.17
2023-03-03T06:11:04.311Z,21.02
2023-03-03T06:13:33.788Z,22.30
2023-03-03T06:16:02.958Z,20.10
2023-03-03T06:18:32.047Z,18.27
2023-03-03T06:21:01.075Z,22.10
2023-03-03T06:23:30.139Z,18.55
2023-03-03T06:25:59.242Z,17.67
2023-03-03T06:28:29.705Z,18.30
2023-03-03T06:30:59.704Z,24.83
2023-03-03T06:33:28.809Z,20.42
2023-03-03T06:35:58.126Z,21.13
2023-03-03T06:38:27.407Z,19.05
2023-03-03T06:40:56.444Z,22.35
2023-03-03T06:43:25.501Z,12.45
2023-03-03T06:45:56.153Z,32.20
2023-03-03T06:48:25.258Z,18.25
2023-03-03T06:50:54.211Z,18.90
2023-03-03T06:53:23.354Z,15.45
2023-03-03T06:55:52.817Z,20.77
2023-03-03T06:58:24.206Z,26.23
2023-03-03T07:00:59.066Z,25.58
2023-03-03T07:03:34.086Z,25.33
2023-03-03T07:06:06.071Z,25.05
2023-03-03T07:08:35.368Z,27.58
2023-03-03T07:11:10.464Z,27.48
2023-03-03T07:13:47.674Z,23.08
2023-03-03T07:16:19.928Z,27.98
2023-03-03T07:18:53.202Z,22.58
2023-03-03T07:21:25.042Z,24.75
2023-03-03T07:23:55.040Z,25.77
2023-03-03T07:26:29.040Z,27.35
2023-03-03T07:29:01.386Z,25.23
2023-03-03T07:31:36.841Z,26.90
2023-03-03T07:34:18.221Z,18.88
2023-03-03T07:36:47.348Z,27.63
2023-03-03T07:39:35.358Z,16.63
2023-03-03T07:42:24.875Z,17.92
2023-03-03T07:45:04.487Z,33.65
2023-03-03T07:47:38.511Z,17.58
2023-03-03T07:50:19.605Z,21.30
2023-03-03T07:52:57.011Z,19.67
2023-03-03T07:55:32.576Z,15.68
2023-03-03T07:58:21.501Z,28.23
2023-03-03T08:01:29.345Z,16.90
2023-03-03T08:04:00.063Z,23.25
2023-03-03T08:06:49.928Z,18.50
2023-03-03T08:09:43.851Z,14.00
2023-03-03T08:12:43.915Z,19.08
2023-03-03T08:15:21.652Z,18.55
2023-03-03T08:17:52.205Z,17.90
2023-03-03T08:20:45.925Z,18.25
2023-03-03T08:23:16.822Z,18.38
2023-03-03T08:25:51.536Z,20.00
2023-03-03T08:28:21.530Z,21.08
2023-03-03T08:30:55.827Z,15.13
2023-03-03T08:33:29.147Z,23.63
2023-03-03T08:36:02.247Z,16.55
2023-03-03T08:38:31.306Z,21.25
2023-03-03T08:41:00.482Z,19.75
2023-03-03T08:43:29.834Z,17.52
2023-03-03T08:46:01.224Z,23.67
2023-03-03T08:48:31.189Z,12.20
2023-03-03T08:51:01.980Z,13.40
2023-03-03T08:53:33.621Z,17.48
2023-03-03T08:56:02.592Z,15.88
2023-03-03T08:58:35.461Z,16.08
2023-03-03T09:01:05.339Z,13.48
2023-03-03T09:03:34.426Z,17.27
2023-03-03T09:06:04.934Z,14.98
2023-03-03T09:08:34.280Z,15.57
2023-03-03T09:11:03.552Z,17.92
2023-03-03T09:13:33.379Z,12.63
2023-03-03T09:16:18.375Z,14.40
2023-03-03T09:18:47.502Z,15.20
2023-03-03T09:21:25.455Z,16.35
2023-03-03T09:23:57.817Z,18.00
2023-03-03T09:26:41.568Z,15.57
2023-03-03T09:29:23.541Z,15.77
2023-03-03T09:31:55.132Z,14.55
2023-03-03T09:34:27.863Z,12.15
2023-03-03T09:37:47.878Z,13.15
2023-03-03T09:40:47.319Z,11.30
2023-03-03T09:43:24.244Z,14.77
2023-03-03T09:46:05.741Z,12.05
2023-03-03T09:48:53.746Z,16.55
2023-03-03T09:51:48.653Z,11.32
2023-03-03T09:54:28.615Z,15.82
2023-03-03T09:57:06.726Z,13.07
2023-03-03T09:59:48.719Z,12.70
2023-03-03T10:02:39.664Z,13.90
2023-03-03T10:05:20.689Z,15.90
2023-03-03T10:08:04.280Z,19.15
2023-03-03T10:10:54.816Z,17.10
2023-03-03T10:13:42.210Z,14.93
2023-03-03T10:16:28.674Z,14.77
2023-03-03T10:19:03.312Z,14.82
2023-03-03T10:21:37.021Z,17.90
2023-03-03T10:24:20.922Z,22.23
2023-03-03T10:27:15.477Z,13.70
2023-03-03T10:30:00.125Z,14.75
2023-03-03T10:32:38.286Z,14.75
2023-03-03T10:36:00.913Z,19.17
2023-03-03T10:38:46.561Z,18.05
2023-03-03T10:41:33.460Z,15.95
2023-03-03T10:44:23.093Z,20.20
2023-03-03T10:47:02.542Z,14.57
2023-03-03T10:49:53.357Z,23.10
2023-03-03T10:53:17.167Z,15.93
2023-03-03T10:55:59.200Z,18.02
2023-03-03T10:58:58.858Z,24.05
2023-03-03T11:01:37.445Z,21.95
2023-03-03T11:04:40.680Z,18.40
2023-03-03T11:07:14.193Z,19.33
2023-03-03T11:09:58.614Z,19.35
2023-03-03T11:12:41.322Z,18.15
2023-03-03T11:15:35.386Z,21.38
2023-03-03T11:18:25.549Z,16.90
2023-03-03T11:21:06.727Z,20.15
2023-03-03T11:23:50.677Z,28.20
2023-03-03T11:26:31.716Z,20.80
2023-03-03T11:29:14.519Z,22.73
2023-03-03T11:31:52.431Z,20.75
2023-03-03T11:34:37.716Z,20.83
2023-03-03T11:37:12.068Z,22.83
2023-03-03T11:39:43.456Z,20.08
2023-03-03T11:42:25.162Z,28.08
2023-03-03T11:44:58.229Z,17.55
2023-03-03T11:47:35.612Z,26.25
2023-03-03T11:50:10.052Z,20.90
2023-03-03T11:52:46.107Z,26.00
2023-03-03T11:55:22.556Z,25.10
2023-03-03T11:57:57.309Z,22.98
2023-03-03T12:00:36.162Z,26.92
2023-03-03T12:03:20.978Z,24.23
2023-03-03T12:06:06.345Z,23.40
2023-03-03T12:09:05.507Z,19.30
2023-03-03T12:11:42.543Z,23.60
2023-03-03T12:14:19.418Z,24.30
2023-03-03T12:16:56.781Z,23.52
2023-03-03T12:19:44.585Z,23.70
2023-03-03T12:22:29.793Z,26.40
2023-03-03T12:25:24.894Z,17.25
2023-03-03T12:28:02.036Z,17.25
2023-03-03T12:31:04.733Z,23.67
2023-03-03T12:33:46.513Z,23.70
2023-03-03T12:36:47.309Z,23.75
2023-03-03T12:39:35.079Z,21.17
2023-03-03T12:42:14.383Z,21.35
2023-03-03T12:44:51.495Z,18.30
2023-03-03T12:47:29.207Z,24.58
2023-03-03T12:50:16.296Z,23.95
2023-03-03T12:52:53.882Z,20.30
2023-03-03T12:55:35.334Z,24.52
2023-03-03T12:58:16.383Z,26.02
2023-03-03T13:00:53.592Z,21.70
2023-03-03T13:03:37.141Z,22.58
2023-03-03T13:06:20.975Z,24.30
2023-03-03T13:09:07.257Z,23.23
2023-03-03T13:11:53.039Z,27.80
2023-03-03T13:14:35.485Z,22.00
2023-03-03T13:17:14.340Z,21.02
2023-03-03T13:19:50.572Z,28.83
2023-03-03T13:22:32.692Z,28.77
2023-03-03T13:25:08.206Z,26.60
2023-03-03T13:27:41.782Z,26.13
2023-03-03T13:30:19.628Z,24.75
2023-03-03T13:32:58.435Z,28.85
2023-03-03T13:35:40.446Z,22.60
2023-03-03T13:38:14.376Z,26.02
2023-03-03T13:40:48.187Z,28.02
2023-03-03T13:43:21.069Z,20.02
2023-03-03T13:46:14.802Z,21.75
2023-03-03T13:49:05.362Z,22.55
2023-03-03T13:51:59.312Z,21.98
2023-03-03T13:54:45.388Z,20.58
2023-03-03T13:57:29.354Z,26.38
2023-03-03T14:00:13.276Z,23.50
2023-03-03T14:03:11.871Z,21.88
2023-03-03T14:05:46.377Z,18.20
2023-03-03T14:08:29.137Z,23.30
2023-03-03T14:11:08.744Z,22.02
2023-03-03T14:13:46.589Z,29.38
2023-03-03T14:16:23.175Z,28.08
2023-03-03T14:18:58.502Z,26.50
2023-03-03T14:21:35.319Z,22.48
2023-03-03T14:24:16.248Z,25.27
2023-03-03T14:26:50.705Z,29.10
2023-03-03T14:29:30.966Z,23.63
2023-03-03T14:32:01.656Z,27.33
2023-03-03T14:34:39.464Z,23.08
2023-03-03T14:37:25.083Z,28.23
2023-03-03T14:40:08.456Z,24.52
2023-03-03T14:42:48.744Z,25.50
2023-03-03T14:45:30.329Z,21.15
2023-03-03T14:48:00.896Z,25.35
2023-03-03T14:50:34.973Z,20.85
2023-03-03T14:53:24.628Z,24.00
2023-03-03T14:55:54.810Z,25.27
2023-03-03T14:58:43.808Z,23.50
2023-03-03T15:01:22.331Z,17.60
2023-03-03T15:04:00.009Z,21.95
2023-03-03T15:06:34.200Z,23.52
2023-03-03T15:09:36.816Z,22.65
2023-03-03T15:12:21.421Z,23.42
2023-03-03T15:14:52.197Z,21.50
2023-03-03T15:17:31.130Z,27.55
2023-03-03T15:20:26.069Z,22.90
2023-03-03T15:23:06.463Z,30.40
2023-03-03T15:25:47.498Z,21.65
2023-03-03T15:28:37.930Z,26.42
2023-03-03T15:31:20.685Z,25.27
2023-03-03T15:34:07.129Z,23.20
2023-03-03T15:36:45.496Z,22.75
2023-03-03T15:39:24.678Z,23.75
2023-03-03T15:42:04.142Z,18.42
2023-03-03T15:44:45.277Z,23.70
2023-03-03T15:47:33.181Z,19.58
2023-03-03T15:50:29.644Z,20.98
2023-03-03T15:53:06.646Z,24.95
2023-03-03T15:55:48.150Z,22.60
2023-03-03T15:58:40.958Z,24.65
2023-03-03T16:01:19.526Z,23.73
2023-03-03T16:03:54.646Z,28.45
2023-03-03T16:06:31.508Z,24.27
2023-03-03T16:09:08.249Z,25.17
2023-03-03T16:12:13.235Z,26.48
2023-03-03T16:15:02.435Z,23.98
2023-03-03T16:17:40.676Z,23.55
2023-03-03T16:20:21.879Z,25.80
2023-03-03T16:23:44.777Z,19.95
2023-03-03T16:26:33.021Z,23.05
2023-03-03T16:29:18.776Z,27.23
2023-03-03T16:31:54.550Z,22.15
2023-03-03T16:34:29.809Z,21.55
2023-03-03T16:37:08.325Z,25.17
2023-03-03T16:39:51.863Z,23.90
2023-03-03T16:42:27.334Z,21.95
2023-03-03T16:45:23.058Z,21.48
2023-03-03T16:48:09.670Z,18.98
2023-03-03T16:50:46.054Z,16.52
2023-03-03T16:53:25.926Z,20.20
2023-03-03T16:56:05.536Z,22.63
2023-03-03T16:58:49.747Z,21.80
2023-03-03T17:01:30.873Z,27.00
2023-03-03T17:04:15.245Z,21.60
2023-03-03T17:06:54.382Z,21.80
2023-03-03T17:09:50.371Z,23.52
2023-03-03T17:12:37.098Z,23.30
2023-03-03T17:15:16.602Z,23.70
2023-03-03T17:17:52.612Z,21.65
2023-03-03T17:20:33.983Z,23.33
2023-03-03T17:23:27.968Z,20.90
2023-03-03T17:26:11.537Z,21.90
2023-03-03T17:28:50.033Z,22.55
2023-03-03T17:31:30.784Z,27.77
2023-03-03T17:34:27.423Z,26.63
2023-03-03T17:37:14.910Z,22.45
2023-03-03T17:40:12.557Z,23.52
2023-03-03T17:42:47.658Z,31.80
2023-03-03T17:45:18.503Z,21.30
2023-03-03T17:48:14.186Z,19.80
2023-03-03T17:51:10.724Z,28.52
2023-03-03T17:54:06.463Z,24.80
2023-03-03T17:56:43.034Z,26.70
2023-03-03T17:59:56.100Z,20.20
2023-03-03T18:02:58.647Z,24.48
2023-03-03T18:05:46.129Z,28.88
2023-03-03T18:08:35.710Z,19.88
2023-03-03T18:11:24.277Z,23.60
2023-03-03T18:14:22.152Z,24.48
2023-03-03T18:17:11.572Z,17.15
2023-03-03T18:20:17.721Z,26.40
2023-03-03T18:22:48.280Z,26.30
2023-03-03T18:25:19.185Z,26.15
2023-03-03T18:28:14.681Z,23.85
2023-03-03T18:31:00.251Z,21.50
2023-03-03T18:33:44.816Z,26.25
2023-03-03T18:36:38.781Z,24.20
2023-03-03T18:39:14.440Z,20.90
2023-03-03T18:42:10.957Z,25.10
2023-03-03T18:44:41.436Z,23.17
2023-03-03T18:47:11.275Z,20.35
2023-03-03T18:50:05.373Z,25.05
2023-03-03T18:52:36.516Z,23.92
2023-03-03T18:55:28.008Z,22.35
2023-03-03T18:58:57.785Z,28.42
2023-03-03T19:01:44.368Z,23.30
2023-03-03T19:04:25.867Z,27.05
2023-03-03T19:07:26.450Z,22.63
2023-03-03T19:09:58.332Z,21.02
2023-03-03T19:12:52.984Z,22.23
2023-03-03T19:15:44.973Z,21.42
2023-03-03T19:18:21.468Z,23.88
2023-03-03T19:20:58.321Z,34.65
2023-03-03T19:23:50.780Z,26.92
2023-03-03T19:26:46.872Z,23.17
2023-03-03T19:30:00.661Z,28.25
2023-03-03T19:33:05.049Z,25.67
2023-03-03T19:35:44.088Z,23.65
2023-03-03T19:38:25.049Z,23.52
2023-03-03T19:41:01.630Z,21.20
2023-03-03T19:43:40.982Z,25.85
2023-03-03T19:46:42.608Z,24.98
2023-03-03T19:49:22.551Z,23.27
2023-03-03T19:52:03.024Z,24.48
2023-03-03T19:55:03.141Z,24.13
2023-03-03T19:57:49.079Z,24.80
2023-03-03T20:00:25.856Z,26.77
2023-03-03T20:03:26.230Z,24.52
2023-03-03T20:06:03.538Z,27.23
2023-03-03T20:08:59.001Z,21.90
2023-03-03T20:11:48.062Z,27.42
2023-03-03T20:14:44.437Z,22.95
2023-03-03T20:17:45.651Z,25.92
2023-03-03T20:20:36.304Z,21.10
2023-03-03T20:23:16.570Z,24.67
2023-03-03T20:25:49.954Z,21.13
2023-03-03T20:28:47.012Z,19.17
2023-03-03T20:31:23.826Z,19.70
2023-03-03T20:34:04.931Z,19.23
2023-03-03T20:36:43.250Z,18.20
2023-03-03T20:39:18.100Z,14.02
2023-03-03T20:42:05.851Z,13.27
2023-03-03T20:44:55.052Z,10.52
2023-03-03T20:47:39.413Z,11.00
2023-03-03T20:50:19.108Z,10.85
2023-03-03T20:53:00.249Z,12.27
2023-03-03T20:55:40.803Z,12.70
2023-03-03T20:58:18.539Z,9.10
2023-03-03T21:00:54.193Z,18.42
2023-03-03T21:03:34.241Z,13.07
2023-03-03T21:06:07.556Z,12.60
2023-03-03T21:08:45.992Z,15.52
2023-03-03T21:11:16.950Z,14.95
2023-03-03T21:13:48.951Z,14.55
2023-03-03T21:16:34.617Z,17.10
2023-03-03T21:19:05.143Z,14.13
2023-03-03T21:21:36.106Z,20.50
2023-03-03T21:24:06.091Z,19.10
2023-03-03T21:26:58.572Z,16.10
2023-03-03T21:29:30.926Z,15.07
2023-03-03T21:32:01.205Z,15.52
2023-03-03T21:34:31.979Z,20.67
2023-03-03T21:37:02.848Z,18.23
2023-03-03T21:39:33.369Z,18.58
2023-03-03T21:42:04.690Z,19.92
2023-03-03T21:45:31.262Z,19.38
2023-03-03T21:48:03.222Z,18.08
2023-03-03T21:50:32.940Z,20.40
2023-03-03T21:53:01.911Z,18.98
2023-03-03T21:55:30.944Z,19.60
2023-03-03T21:57:59.963Z,20.10
2023-03-03T22:00:28.975Z,18.50
2023-03-03T22:03:01.202Z,24.48
2023-03-03T22:05:30.584Z,24.13
2023-03-03T22:07:59.517Z,21.50
2023-03-03T22:10:28.795Z,22.30
2023-03-03T22:12:57.835Z,22.58
2023-03-03T22:15:33.406Z,17.73
2023-03-03T22:18:03.855Z,18.55
2023-03-03T22:20:32.913Z,21.17
2023-03-03T22:23:01.867Z,25.85
2023-03-03T22:25:30.946Z,16.63
2023-03-03T22:27:59.940Z,25.75
2023-03-03T22:30:28.890Z,21.50
2023-03-03T22:32:57.870Z,18.95
2023-03-03T22:35:28.484Z,20.90
2023-03-03T22:37:57.606Z,23.08
2023-03-03T22:40:27.231Z,17.50
2023-03-03T22:42:56.178Z,19.65
2023-03-03T22:45:27.186Z,18.30
2023-03-03T22:47:56.243Z,20.73
2023-03-03T22:50:25.330Z,20.00
2023-03-03T22:52:55.843Z,17.25
2023-03-03T22:55:24.961Z,17.67
2023-03-03T22:57:53.978Z,19.20
2023-03-03T23:00:23.527Z,21.73
2023-03-03T23:02:52.449Z,20.02
2023-03-03T23:05:21.668Z,25.88
2023-03-03T23:07:51.017Z,19.58
2023-03-03T23:10:21.918Z,21.63
2023-03-03T23:12:50.821Z,22.02
2023-03-03T23:15:21.094Z,29.52
2023-03-03T23:17:50.484Z,36.30
2023-03-03T23:20:23.700Z,30.48
2023-03-03T23:22:53.029Z,31.45
2023-03-03T23:25:24.543Z,36.20
2023-03-03T23:27:54.459Z,37.38
2023-03-03T23:30:26.495Z,36.85
2023-03-03T23:32:56.677Z,37.90
2023-03-03T23:35:25.997Z,39.28
2023-03-03T23:37:54.988Z,39.42
2023-03-03T23:40:25.478Z,38.50
2023-03-03T23:42:54.386Z,32.55
2023-03-03T23:45:30.580Z,36.97
2023-03-03T23:47:59.577Z,38.13
2023-03-03T23:50:28.690Z,35.97
2023-03-03T23:52:57.641Z,39.83
2023-03-03T23:55:28.175Z,40.67
2023-03-03T23:57:57.473Z,40.65
